sensor_id;sensor_type;location;lat;lon;timestamp;pressure;altitude;pressure_sealevel;temperature;humidity
45864;BME280;31579;52.354;16.974;2022-12-20T00:00:49;-152.3;;;-146.1;100.0
45864;BME280;31579;52.354;16.974;2022-12-20T00:01:52;-152.3;;;-146.1;100.0
45864;BME280;31579;52.354;16.974;2022-12-20T00:02:55;-152.2;;;-146.1;100.0
45864;BME280;31579;52.354;16.974;2022-12-20T00:03:58;-152.1;;;-146.1;100.0
45864;BME280;31579;52.354;16.974;2022-12-20T00:05:02;-152.6;;;-146.1;100.0
45864;BME280;31579;52.354;16.974;2022-12-20T00:06:05;-152.5;;;-146.1;100.0
45864;BME280;31579;52.354;16.974;2022-12-20T00:07:08;-152.5;;;-146.1;100.0
45864;BME280;31579;52.354;16.974;2022-12-20T00:08:11;-152.4;;;-146.1;100.0
45864;BME280;31579;52.354;16.974;2022-12-20T00:09:14;-152.3;;;-146.1;100.0
45864;BME280;31579;52.354;16.974;2022-12-20T00:10:17;-152.1;;;-146.1;100.0
45864;BME280;31579;52.354;16.974;2022-12-20T00:11:20;-151.9;;;-146.1;100.0
45864;BME280;31579;52.354;16.974;2022-12-20T00:12:23;-151.7;;;-146.1;100.0
45864;BME280;31579;52.354;16.974;2022-12-20T00:13:26;-151.3;;;-146.1;100.0
45864;BME280;31579;52.354;16.974;2022-12-20T00:14:29;-150.9;;;-146.1;100.0
45864;BME280;31579;52.354;16.974;2022-12-20T00:15:32;-150.5;;;-146.1;100.0
45864;BME280;31579;52.354;16.974;2022-12-20T00:16:35;-149.8;;;-146.1;100.0
45864;BME280;31579;52.354;16.974;2022-12-20T00:17:38;-149.2;;;-146.1;100.0
45864;BME280;31579;52.354;16.974;2022-12-20T00:18:41;-148.3;;;-146.1;100.0
45864;BME280;31579;52.354;16.974;2022-12-20T00:19:44;-147.6;;;-146.1;100.0
45864;BME280;31579;52.354;16.974;2022-12-20T00:20:47;-146.9;;;-146.1;100.0
45864;BME280;31579;52.354;16.974;2022-12-20T00:21:50;-146.2;;;-146.1;100.0
45864;BME280;31579;52.354;16.974;2022-12-20T00:22:53;-145.5;;;-146.1;100.0
45864;BME280;31579;52.354;16.974;2022-12-20T00:23:56;-144.6;;;-146.1;100.0
45864;BME280;31579;52.354;16.974;2022-12-20T00:24:59;-143.6;;;-146.1;100.0
45864;BME280;31579;52.354;16.974;2022-12-20T00:26:07;-143.3;;;-146.1;100.0
45864;BME280;31579;52.354;16.974;2022-12-20T00:27:06;-142.2;;;-146.1;100.0
45864;BME280;31579;52.354;16.974;2022-12-20T00:28:09;-141.6;;;-146.1;100.0
45864;BME280;31579;52.354;16.974;2022-12-20T00:29:13;-144.0;;;-146.1;100.0
45864;BME280;31579;52.354;16.974;2022-12-20T00:30:16;-142.0;;;-146.1;100.0
45864;BME280;31579;52.354;16.974;2022-12-20T00:31:20;-141.2;;;-146.1;100.0
45864;BME280;31579;52.354;16.974;2022-12-20T00:32:22;-140.9;;;-146.1;100.0
45864;BME280;31579;52.354;16.974;2022-12-20T00:33:25;-140.2;;;-146.1;100.0
45864;BME280;31579;52.354;16.974;2022-12-20T00:34:28;-140.0;;;-146.1;100.0
45864;BME280;31579;52.354;16.974;2022-12-20T00:35:31;-139.6;;;-146.1;100.0
45864;BME280;31579;52.354;16.974;2022-12-20T00:36:34;-139.1;;;-146.1;100.0
45864;BME280;31579;52.354;16.974;2022-12-20T00:37:37;-139.1;;;-146.1;100.0
45864;BME280;31579;52.354;16.974;2022-12-20T00:38:40;-138.8;;;-146.1;100.0
45864;BME280;31579;52.354;16.974;2022-12-20T00:39:43;-138.5;;;-146.1;100.0
45864;BME280;31579;52.354;16.974;2022-12-20T00:40:46;-138.3;;;-146.1;100.0
45864;BME280;31579;52.354;16.974;2022-12-20T00:41:49;-138.2;;;-146.1;100.0
45864;BME280;31579;52.354;16.974;2022-12-20T00:42:52;-138.3;;;-146.1;100.0
45864;BME280;31579;52.354;16.974;2022-12-20T00:43:55;-138.5;;;-146.1;100.0
45864;BME280;31579;52.354;16.974;2022-12-20T00:44:58;-138.6;;;-146.1;100.0
45864;BME280;31579;52.354;16.974;2022-12-20T00:46:02;-151.1;;;-146.1;100.0
45864;BME280;31579;52.354;16.974;2022-12-20T00:47:05;-148.2;;;-146.1;100.0
45864;BME280;31579;52.354;16.974;2022-12-20T00:48:08;-147.6;;;-146.1;100.0
45864;BME280;31579;52.354;16.974;2022-12-20T00:49:11;-146.9;;;-146.1;100.0
45864;BME280;31579;52.354;16.974;2022-12-20T00:50:14;-146.5;;;-146.1;100.0
45864;BME280;31579;52.354;16.974;2022-12-20T00:51:18;-145.9;;;-146.1;100.0
45864;BME280;31579;52.354;16.974;2022-12-20T00:52:20;-145.6;;;-146.1;100.0
45864;BME280;31579;52.354;16.974;2022-12-20T00:53:23;-145.1;;;-146.1;100.0
45864;BME280;31579;52.354;16.974;2022-12-20T00:54:26;-144.7;;;-146.1;100.0
45864;BME280;31579;52.354;16.974;2022-12-20T00:55:29;-144.3;;;-146.1;100.0
45864;BME280;31579;52.354;16.974;2022-12-20T00:56:32;-143.7;;;-146.1;100.0
45864;BME280;31579;52.354;16.974;2022-12-20T00:57:35;-143.3;;;-146.1;100.0
45864;BME280;31579;52.354;16.974;2022-12-20T00:58:38;-142.8;;;-146.1;100.0
45864;BME280;31579;52.354;16.974;2022-12-20T00:59:41;-142.3;;;-146.1;100.0
45864;BME280;31579;52.354;16.974;2022-12-20T01:00:44;-141.9;;;-146.1;100.0
45864;BME280;31579;52.354;16.974;2022-12-20T01:01:47;-141.6;;;-146.1;100.0
45864;BME280;31579;52.354;16.974;2022-12-20T01:02:50;-141.5;;;-146.1;100.0
45864;BME280;31579;52.354;16.974;2022-12-20T01:03:53;-141.3;;;-146.1;100.0
45864;BME280;31579;52.354;16.974;2022-12-20T01:04:56;-141.6;;;-146.1;100.0
45864;BME280;31579;52.354;16.974;2022-12-20T01:05:59;-141.7;;;-146.1;100.0
45864;BME280;31579;52.354;16.974;2022-12-20T01:07:01;-119.4;;;-146.1;100.0
45864;BME280;31579;52.354;16.974;2022-12-20T01:08:04;-129.1;;;-146.1;100.0
45864;BME280;31579;52.354;16.974;2022-12-20T01:09:07;-130.6;;;-146.1;100.0
45864;BME280;31579;52.354;16.974;2022-12-20T01:10:10;-131.5;;;-146.1;100.0
45864;BME280;31579;52.354;16.974;2022-12-20T01:11:13;-107.0;;;-146.1;100.0
45864;BME280;31579;52.354;16.974;2022-12-20T01:12:14;-88.7;;;-146.1;100.0
45864;BME280;31579;52.354;16.974;2022-12-20T01:13:17;-103.1;;;-146.1;100.0
45864;BME280;31579;52.354;16.974;2022-12-20T01:14:20;-106.5;;;-146.1;100.0
45864;BME280;31579;52.354;16.974;2022-12-20T01:15:23;-108.9;;;-146.1;100.0
45864;BME280;31579;52.354;16.974;2022-12-20T01:16:30;-110.8;;;-146.1;100.0
45864;BME280;31579;52.354;16.974;2022-12-20T01:17:29;-112.1;;;-146.1;100.0
45864;BME280;31579;52.354;16.974;2022-12-20T01:18:32;-113.3;;;-146.1;100.0
45864;BME280;31579;52.354;16.974;2022-12-20T01:19:35;-114.5;;;-146.1;100.0
45864;BME280;31579;52.354;16.974;2022-12-20T01:20:38;-115.4;;;-146.1;100.0
45864;BME280;31579;52.354;16.974;2022-12-20T01:21:41;-116.2;;;-146.1;100.0
45864;BME280;31579;52.354;16.974;2022-12-20T01:22:44;-117.3;;;-146.1;100.0
45864;BME280;31579;52.354;16.974;2022-12-20T01:23:47;-118.2;;;-146.1;100.0
45864;BME280;31579;52.354;16.974;2022-12-20T01:24:50;-118.7;;;-146.1;100.0
45864;BME280;31579;52.354;16.974;2022-12-20T01:25:53;-119.5;;;-146.1;100.0
45864;BME280;31579;52.354;16.974;2022-12-20T01:26:56;-120.3;;;-146.1;100.0
45864;BME280;31579;52.354;16.974;2022-12-20T01:27:59;-120.4;;;-146.1;100.0
45864;BME280;31579;52.354;16.974;2022-12-20T01:29:01;-94.3;;;-146.1;100.0
45864;BME280;31579;52.354;16.974;2022-12-20T01:30:05;-104.3;;;-146.1;100.0
45864;BME280;31579;52.354;16.974;2022-12-20T01:31:09;-105.7;;;-146.1;100.0
45864;BME280;31579;52.354;16.974;2022-12-20T01:32:11;-106.8;;;-146.1;100.0
45864;BME280;31579;52.354;16.974;2022-12-20T01:33:14;-107.5;;;-146.1;100.0
45864;BME280;31579;52.354;16.974;2022-12-20T01:34:17;-108.2;;;-146.1;100.0
45864;BME280;31579;52.354;16.974;2022-12-20T01:35:20;-108.9;;;-146.1;100.0
45864;BME280;31579;52.354;16.974;2022-12-20T01:36:24;-109.6;;;-146.1;100.0
45864;BME280;31579;52.354;16.974;2022-12-20T01:37:26;-109.7;;;-146.1;100.0
45864;BME280;31579;52.354;16.974;2022-12-20T01:38:29;-109.9;;;-146.1;100.0
45864;BME280;31579;52.354;16.974;2022-12-20T01:39:32;-110.2;;;-146.1;100.0
45864;BME280;31579;52.354;16.974;2022-12-20T01:40:37;-110.4;;;-146.1;100.0
45864;BME280;31579;52.354;16.974;2022-12-20T01:41:52;-151.3;;;-146.1;100.0
45864;BME280;31579;52.354;16.974;2022-12-20T01:42:55;-147.9;;;-146.1;100.0
45864;BME280;31579;52.354;16.974;2022-12-20T01:43:59;-146.3;;;-146.1;100.0
45864;BME280;31579;52.354;16.974;2022-12-20T01:45:00;-124.8;;;-146.1;100.0
45864;BME280;31579;52.354;16.974;2022-12-20T01:46:04;-131.3;;;-146.1;100.0
45864;BME280;31579;52.354;16.974;2022-12-20T01:47:07;-130.7;;;-146.1;100.0
45864;BME280;31579;52.354;16.974;2022-12-20T01:48:10;-130.3;;;-146.1;100.0
45864;BME280;31579;52.354;16.974;2022-12-20T01:49:14;-129.1;;;-146.1;100.0
45864;BME280;31579;52.354;16.974;2022-12-20T01:50:16;-128.0;;;-146.1;100.0
45864;BME280;31579;52.354;16.974;2022-12-20T01:51:19;-126.8;;;-146.1;100.0
45864;BME280;31579;52.354;16.974;2022-12-20T01:52:25;-125.8;;;-146.1;100.0
45864;BME280;31579;52.354;16.974;2022-12-20T01:53:25;-124.7;;;-146.1;100.0
45864;BME280;31579;52.354;16.974;2022-12-20T01:55:32;-121.9;;;-146.1;100.0
45864;BME280;31579;52.354;16.974;2022-12-20T01:56:35;-121.1;;;-146.1;100.0
45864;BME280;31579;52.354;16.974;2022-12-20T01:57:43;-120.1;;;-146.1;100.0
45864;BME280;31579;52.354;16.974;2022-12-20T01:58:41;-119.0;;;-146.1;100.0
45864;BME280;31579;52.354;16.974;2022-12-20T01:59:44;-117.8;;;-146.1;100.0
45864;BME280;31579;52.354;16.974;2022-12-20T02:00:46;-90.3;;;-146.1;100.0
45864;BME280;31579;52.354;16.974;2022-12-20T02:01:49;-97.3;;;-146.1;100.0
45864;BME280;31579;52.354;16.974;2022-12-20T02:02:52;-98.5;;;-146.1;100.0
45864;BME280;31579;52.354;16.974;2022-12-20T02:03:55;-98.4;;;-146.1;100.0
45864;BME280;31579;52.354;16.974;2022-12-20T02:04:58;-98.0;;;-146.1;100.0
45864;BME280;31579;52.354;16.974;2022-12-20T02:07:05;-96.5;;;-146.1;100.0
45864;BME280;31579;52.354;16.974;2022-12-20T02:08:08;-95.6;;;-146.1;100.0
45864;BME280;31579;52.354;16.974;2022-12-20T02:09:11;-94.8;;;-146.1;100.0
45864;BME280;31579;52.354;16.974;2022-12-20T02:10:14;-93.9;;;-146.1;100.0
45864;BME280;31579;52.354;16.974;2022-12-20T02:12:21;-92.4;;;-146.1;100.0
45864;BME280;31579;52.354;16.974;2022-12-20T02:13:50;-91.3;;;-146.1;100.0
45864;BME280;31579;52.354;16.974;2022-12-20T02:15:32;-88.5;;;-146.1;100.0
45864;BME280;31579;52.354;16.974;2022-12-20T02:16:34;-87.4;;;-146.1;100.0
45864;BME280;31579;52.354;16.974;2022-12-20T02:25:04;-94.1;;;-146.1;100.0
45864;BME280;31579;52.354;16.974;2022-12-20T02:30:15;-98.9;;;-146.1;100.0
45864;BME280;31579;52.354;16.974;2022-12-20T02:31:18;-96.5;;;-146.1;100.0
45864;BME280;31579;52.354;16.974;2022-12-20T02:32:24;-94.1;;;-146.1;100.0
45864;BME280;31579;52.354;16.974;2022-12-20T02:33:23;-92.2;;;-146.1;100.0
45864;BME280;31579;52.354;16.974;2022-12-20T02:34:35;-148.7;;;-146.1;100.0
45864;BME280;31579;52.354;16.974;2022-12-20T02:35:38;-139.2;;;-146.1;100.0
45864;BME280;31579;52.354;16.974;2022-12-20T02:36:40;-134.4;;;-146.1;100.0
45864;BME280;31579;52.354;16.974;2022-12-20T02:38:46;-125.8;;;-146.1;100.0
45864;BME280;31579;52.354;16.974;2022-12-20T02:39:49;-121.9;;;-146.1;100.0
45864;BME280;31579;52.354;16.974;2022-12-20T02:40:54;-118.4;;;-146.1;100.0
45864;BME280;31579;52.354;16.974;2022-12-20T02:41:57;-115.2;;;-146.1;100.0
45864;BME280;31579;52.354;16.974;2022-12-20T02:43:00;-111.9;;;-146.1;100.0
45864;BME280;31579;52.354;16.974;2022-12-20T02:44:01;-81.8;;;-146.1;100.0
45864;BME280;31579;52.354;16.974;2022-12-20T02:45:05;-88.8;;;-146.1;100.0
45864;BME280;31579;52.354;16.974;2022-12-20T02:46:07;-89.6;;;-146.1;100.0
45864;BME280;31579;52.354;16.974;2022-12-20T02:47:12;-87.9;;;-146.1;100.0
45864;BME280;31579;52.354;16.974;2022-12-20T02:48:14;-85.1;;;-146.1;100.0
45864;BME280;31579;52.354;16.974;2022-12-20T02:49:18;-82.8;;;-146.1;100.0
45864;BME280;31579;52.354;16.974;2022-12-20T02:50:21;-80.9;;;-146.1;100.0
45864;BME280;31579;52.354;16.974;2022-12-20T02:51:23;-79.1;;;-146.1;100.0
45864;BME280;31579;52.354;16.974;2022-12-20T02:52:26;-77.5;;;-146.1;100.0
45864;BME280;31579;52.354;16.974;2022-12-20T02:53:28;-46.1;;;-146.1;100.0
45864;BME280;31579;52.354;16.974;2022-12-20T02:54:31;-50.4;;;-146.1;100.0
45864;BME280;31579;52.354;16.974;2022-12-20T02:56:38;-52.3;;;-146.1;100.0
45864;BME280;31579;52.354;16.974;2022-12-20T03:00:49;-49.0;;;-146.1;100.0
45864;BME280;31579;52.354;16.974;2022-12-20T03:01:53;-49.5;;;-146.1;100.0
45864;BME280;31579;52.354;16.974;2022-12-20T03:02:55;-48.6;;;-146.1;100.0
45864;BME280;31579;52.354;16.974;2022-12-20T03:03:58;-47.0;;;-146.1;100.0
45864;BME280;31579;52.354;16.974;2022-12-20T03:05:00;-15.3;;;-146.1;100.0
45864;BME280;31579;52.354;16.974;2022-12-20T03:06:03;-26.2;;;-146.1;100.0
45864;BME280;31579;52.354;16.974;2022-12-20T03:07:08;-26.8;;;-146.1;100.0
45864;BME280;31579;52.354;16.974;2022-12-20T03:08:09;-26.6;;;-146.1;100.0
45864;BME280;31579;52.354;16.974;2022-12-20T03:09:12;-25.9;;;-146.1;100.0
45864;BME280;31579;52.354;16.974;2022-12-20T03:10:16;-25.5;;;-146.1;100.0
45864;BME280;31579;52.354;16.974;2022-12-20T03:11:18;-25.2;;;-146.1;100.0
45864;BME280;31579;52.354;16.974;2022-12-20T03:12:21;-24.7;;;-146.1;100.0
45864;BME280;31579;52.354;16.974;2022-12-20T03:13:24;-24.2;;;-146.1;100.0
45864;BME280;31579;52.354;16.974;2022-12-20T03:14:27;-24.0;;;-146.1;100.0
45864;BME280;31579;52.354;16.974;2022-12-20T03:15:30;-23.8;;;-146.1;100.0
45864;BME280;31579;52.354;16.974;2022-12-20T03:16:33;-23.8;;;-146.1;100.0
45864;BME280;31579;52.354;16.974;2022-12-20T03:17:36;-23.4;;;-146.1;100.0
45864;BME280;31579;52.354;16.974;2022-12-20T03:18:39;-22.9;;;-146.1;100.0
45864;BME280;31579;52.354;16.974;2022-12-20T03:19:42;-22.3;;;-146.1;100.0
45864;BME280;31579;52.354;16.974;2022-12-20T03:20:45;-22.0;;;-146.1;100.0
45864;BME280;31579;52.354;16.974;2022-12-20T03:21:49;-20.3;;;-146.1;100.0
45864;BME280;31579;52.354;16.974;2022-12-20T03:22:52;-20.2;;;-146.1;100.0
45864;BME280;31579;52.354;16.974;2022-12-20T03:23:55;-19.5;;;-146.1;100.0
45864;BME280;31579;52.354;16.974;2022-12-20T03:24:59;-18.9;;;-146.1;100.0
45864;BME280;31579;52.354;16.974;2022-12-20T03:26:00;13.1;;;-146.1;100.0
45864;BME280;31579;52.354;16.974;2022-12-20T03:27:03;1.4;;;-146.1;100.0
45864;BME280;31579;52.354;16.974;2022-12-20T03:28:06;-0.2;;;-146.1;100.0
45864;BME280;31579;52.354;16.974;2022-12-20T03:29:09;-0.6;;;-146.1;100.0
45864;BME280;31579;52.354;16.974;2022-12-20T03:30:13;-0.7;;;-146.1;100.0
45864;BME280;31579;52.354;16.974;2022-12-20T03:31:15;-0.9;;;-146.1;100.0
45864;BME280;31579;52.354;16.974;2022-12-20T03:32:18;-0.8;;;-146.1;100.0
45864;BME280;31579;52.354;16.974;2022-12-20T03:33:28;-81.8;;;-146.1;100.0
45864;BME280;31579;52.354;16.974;2022-12-20T03:34:32;-59.7;;;-146.1;100.0
45864;BME280;31579;52.354;16.974;2022-12-20T03:35:35;-53.8;;;-146.1;100.0
45864;BME280;31579;52.354;16.974;2022-12-20T03:36:38;-49.9;;;-146.1;100.0
45864;BME280;31579;52.354;16.974;2022-12-20T03:37:41;-45.9;;;-146.1;100.0
45864;BME280;31579;52.354;16.974;2022-12-20T03:38:44;-42.6;;;-146.1;100.0
45864;BME280;31579;52.354;16.974;2022-12-20T03:39:47;-39.6;;;-146.1;100.0
45864;BME280;31579;52.354;16.974;2022-12-20T03:40:50;-37.1;;;-146.1;100.0
45864;BME280;31579;52.354;16.974;2022-12-20T03:41:53;-34.7;;;-146.1;100.0
45864;BME280;31579;52.354;16.974;2022-12-20T03:42:56;-32.2;;;-146.1;100.0
45864;BME280;31579;52.354;16.974;2022-12-20T03:43:59;-29.9;;;-146.1;100.0
45864;BME280;31579;52.354;16.974;2022-12-20T03:45:03;-29.7;;;-146.1;100.0
45864;BME280;31579;52.354;16.974;2022-12-20T03:46:05;-27.0;;;-146.1;100.0
45864;BME280;31579;52.354;16.974;2022-12-20T03:47:08;-24.4;;;-146.1;100.0
45864;BME280;31579;52.354;16.974;2022-12-20T03:48:11;-21.8;;;-146.1;100.0
45864;BME280;31579;52.354;16.974;2022-12-20T03:49:14;-19.4;;;-146.1;100.0
45864;BME280;31579;52.354;16.974;2022-12-20T03:50:17;-18.9;;;-146.1;100.0
45864;BME280;31579;52.354;16.974;2022-12-20T03:51:20;-16.4;;;-146.1;100.0
45864;BME280;31579;52.354;16.974;2022-12-20T03:52:24;-46.0;;;-146.1;100.0
45864;BME280;31579;52.354;16.974;2022-12-20T03:53:27;-31.6;;;-146.1;100.0
45864;BME280;31579;52.354;16.974;2022-12-20T03:54:30;-27.3;;;-146.1;100.0
45864;BME280;31579;52.354;16.974;2022-12-20T03:55:33;-23.5;;;-146.1;100.0
45864;BME280;31579;52.354;16.974;2022-12-20T03:56:49;-54.6;;;-146.1;100.0
45864;BME280;31579;52.354;16.974;2022-12-20T03:57:52;-51.6;;;-146.1;100.0
45864;BME280;31579;52.354;16.974;2022-12-20T03:58:56;-47.6;;;-146.1;100.0
45864;BME280;31579;52.354;16.974;2022-12-20T03:59:58;-42.6;;;-146.1;100.0
45864;BME280;31579;52.354;16.974;2022-12-20T04:01:00;-7.4;;;-146.1;100.0
45864;BME280;31579;52.354;16.974;2022-12-20T04:02:04;-14.9;;;-146.1;100.0
45864;BME280;31579;52.354;16.974;2022-12-20T04:03:07;-12.9;;;-146.1;100.0
45864;BME280;31579;52.354;16.974;2022-12-20T04:04:11;-12.4;;;-146.1;100.0
45864;BME280;31579;52.354;16.974;2022-12-20T04:05:13;-11.1;;;-146.1;100.0
45864;BME280;31579;52.354;16.974;2022-12-20T04:06:17;-10.5;;;-146.1;100.0
45864;BME280;31579;52.354;16.974;2022-12-20T04:07:19;-7.5;;;-146.1;100.0
45864;BME280;31579;52.354;16.974;2022-12-20T04:08:23;-3.5;;;-146.1;100.0
45864;BME280;31579;52.354;16.974;2022-12-20T04:09:27;-2.0;;;-146.1;100.0
45864;BME280;31579;52.354;16.974;2022-12-20T04:10:30;0.7;;;-146.1;100.0
45864;BME280;31579;52.354;16.974;2022-12-20T04:11:33;1.2;;;-146.1;100.0
45864;BME280;31579;52.354;16.974;2022-12-20T04:12:36;3.4;;;-146.1;100.0
45864;BME280;31579;52.354;16.974;2022-12-20T04:13:39;5.6;;;-146.1;100.0
45864;BME280;31579;52.354;16.974;2022-12-20T04:14:42;6.0;;;-146.1;100.0
45864;BME280;31579;52.354;16.974;2022-12-20T04:15:46;-25.0;;;-146.1;100.0
45864;BME280;31579;52.354;16.974;2022-12-20T04:16:57;-89.9;;;-146.1;100.0
45864;BME280;31579;52.354;16.974;2022-12-20T04:18:01;-97.0;;;-146.1;100.0
45864;BME280;31579;52.354;16.974;2022-12-20T04:19:04;-77.6;;;-146.1;100.0
45864;BME280;31579;52.354;16.974;2022-12-20T04:20:09;-68.4;;;-146.1;100.0
45864;BME280;31579;52.354;16.974;2022-12-20T04:21:11;-61.1;;;-146.1;100.0
45864;BME280;31579;52.354;16.974;2022-12-20T04:22:13;-55.2;;;-146.1;100.0
45864;BME280;31579;52.354;16.974;2022-12-20T04:23:16;-50.1;;;-146.1;100.0
45864;BME280;31579;52.354;16.974;2022-12-20T04:24:20;-45.4;;;-146.1;100.0
45864;BME280;31579;52.354;16.974;2022-12-20T04:25:22;-40.9;;;-146.1;100.0
45864;BME280;31579;52.354;16.974;2022-12-20T04:26:26;-38.8;;;-146.1;100.0
45864;BME280;31579;52.354;16.974;2022-12-20T04:27:28;-35.1;;;-146.1;100.0
45864;BME280;31579;52.354;16.974;2022-12-20T04:28:32;-31.4;;;-146.1;100.0
45864;BME280;31579;52.354;16.974;2022-12-20T04:29:34;-27.8;;;-146.1;100.0
45864;BME280;31579;52.354;16.974;2022-12-20T04:30:37;-26.5;;;-146.1;100.0
45864;BME280;31579;52.354;16.974;2022-12-20T04:31:40;-23.0;;;-146.1;100.0
45864;BME280;31579;52.354;16.974;2022-12-20T04:32:43;-19.5;;;-146.1;100.0
45864;BME280;31579;52.354;16.974;2022-12-20T04:33:46;-16.3;;;-146.1;100.0
45864;BME280;31579;52.354;16.974;2022-12-20T04:34:50;-12.2;;;-146.1;100.0
45864;BME280;31579;52.354;16.974;2022-12-20T04:35:54;-10.0;;;-146.1;100.0
45864;BME280;31579;52.354;16.974;2022-12-20T04:36:56;-6.8;;;-146.1;100.0
45864;BME280;31579;52.354;16.974;2022-12-20T04:37:59;-4.0;;;-146.1;100.0
45864;BME280;31579;52.354;16.974;2022-12-20T04:39:02;-1.5;;;-146.1;100.0
45864;BME280;31579;52.354;16.974;2022-12-20T04:40:06;1.1;;;-146.1;100.0
45864;BME280;31579;52.354;16.974;2022-12-20T04:41:08;3.4;;;-146.1;100.0
45864;BME280;31579;52.354;16.974;2022-12-20T04:42:11;5.5;;;-146.1;100.0
45864;BME280;31579;52.354;16.974;2022-12-20T04:43:15;7.5;;;-146.1;100.0
45864;BME280;31579;52.354;16.974;2022-12-20T04:44:17;9.5;;;-146.1;100.0
45864;BME280;31579;52.354;16.974;2022-12-20T04:45:20;11.7;;;-146.1;100.0
45864;BME280;31579;52.354;16.974;2022-12-20T04:46:25;-19.7;;;-146.1;100.0
45864;BME280;31579;52.354;16.974;2022-12-20T04:47:27;-5.2;;;-146.1;100.0
45864;BME280;31579;52.354;16.974;2022-12-20T04:48:30;-1.0;;;-146.1;100.0
45864;BME280;31579;52.354;16.974;2022-12-20T04:49:33;3.0;;;-146.1;100.0
45864;BME280;31579;52.354;16.974;2022-12-20T04:50:36;6.0;;;-146.1;100.0
45864;BME280;31579;52.354;16.974;2022-12-20T04:51:39;9.4;;;-146.1;100.0
45864;BME280;31579;52.354;16.974;2022-12-20T04:52:42;9.9;;;-146.1;100.0
45864;BME280;31579;52.354;16.974;2022-12-20T04:53:45;10.5;;;-146.1;100.0
45864;BME280;31579;52.354;16.974;2022-12-20T04:54:48;13.7;;;-146.1;100.0
45864;BME280;31579;52.354;16.974;2022-12-20T04:55:52;-17.2;;;-146.1;100.0
45864;BME280;31579;52.354;16.974;2022-12-20T04:57:04;31.9;;;-146.1;100.0
45864;BME280;31579;52.354;16.974;2022-12-20T04:58:07;25.9;;;-146.1;100.0
45864;BME280;31579;52.354;16.974;2022-12-20T04:59:10;27.6;;;-146.1;100.0
45864;BME280;31579;52.354;16.974;2022-12-20T05:00:13;27.6;;;-146.1;100.0
45864;BME280;31579;52.354;16.974;2022-12-20T05:01:16;30.0;;;-146.1;100.0
45864;BME280;31579;52.354;16.974;2022-12-20T05:02:19;31.6;;;-146.1;100.0
45864;BME280;31579;52.354;16.974;2022-12-20T05:03:22;33.7;;;-146.1;100.0
45864;BME280;31579;52.354;16.974;2022-12-20T05:04:26;37.0;;;-146.1;100.0
45864;BME280;31579;52.354;16.974;2022-12-20T05:05:29;38.9;;;-146.1;100.0
45864;BME280;31579;52.354;16.974;2022-12-20T05:06:32;40.7;;;-146.1;100.0
45864;BME280;31579;52.354;16.974;2022-12-20T05:07:35;40.9;;;-146.1;100.0
45864;BME280;31579;52.354;16.974;2022-12-20T05:08:38;42.8;;;-146.1;100.0
45864;BME280;31579;52.354;16.974;2022-12-20T05:09:41;44.4;;;-146.1;100.0
45864;BME280;31579;52.354;16.974;2022-12-20T05:10:44;45.7;;;-146.1;100.0
45864;BME280;31579;52.354;16.974;2022-12-20T05:11:47;47.4;;;-146.1;100.0
45864;BME280;31579;52.354;16.974;2022-12-20T05:12:50;46.5;;;-146.1;100.0
45864;BME280;31579;52.354;16.974;2022-12-20T05:13:53;49.0;;;-146.1;100.0
45864;BME280;31579;52.354;16.974;2022-12-20T05:14:56;51.2;;;-146.1;100.0
45864;BME280;31579;52.354;16.974;2022-12-20T05:15:59;53.1;;;-146.1;100.0
45864;BME280;31579;52.354;16.974;2022-12-20T05:17:14;10.8;;;-146.1;100.0
45864;BME280;31579;52.354;16.974;2022-12-20T05:18:17;15.5;;;-146.1;100.0
45864;BME280;31579;52.354;16.974;2022-12-20T05:19:20;19.3;;;-146.1;100.0
45864;BME280;31579;52.354;16.974;2022-12-20T05:20:23;24.4;;;-146.1;100.0
45864;BME280;31579;52.354;16.974;2022-12-20T05:21:26;26.0;;;-146.1;100.0
45864;BME280;31579;52.354;16.974;2022-12-20T05:22:29;29.7;;;-146.1;100.0
45864;BME280;31579;52.354;16.974;2022-12-20T05:23:32;33.7;;;-146.1;100.0
45864;BME280;31579;52.354;16.974;2022-12-20T05:24:35;37.1;;;-146.1;100.0
45864;BME280;31579;52.354;16.974;2022-12-20T05:25:41;39.4;;;-146.1;100.0
45864;BME280;31579;52.354;16.974;2022-12-20T05:26:41;42.5;;;-146.1;100.0
45864;BME280;31579;52.354;16.974;2022-12-20T05:27:44;44.9;;;-146.1;100.0
45864;BME280;31579;52.354;16.974;2022-12-20T05:28:47;47.7;;;-146.1;100.0
45864;BME280;31579;52.354;16.974;2022-12-20T05:29:50;50.3;;;-146.1;100.0
45864;BME280;31579;52.354;16.974;2022-12-20T05:30:53;52.9;;;-146.1;100.0
45864;BME280;31579;52.354;16.974;2022-12-20T05:31:56;53.1;;;-146.1;100.0
45864;BME280;31579;52.354;16.974;2022-12-20T05:32:59;55.9;;;-146.1;100.0
45864;BME280;31579;52.354;16.974;2022-12-20T05:34:02;58.2;;;-146.1;100.0
45864;BME280;31579;52.354;16.974;2022-12-20T05:35:05;60.2;;;-146.1;100.0
45864;BME280;31579;52.354;16.974;2022-12-20T05:36:08;62.6;;;-146.1;100.0
45864;BME280;31579;52.354;16.974;2022-12-20T05:37:11;97.5;;;-146.1;100.0
45864;BME280;31579;52.354;16.974;2022-12-20T05:38:14;85.8;;;-146.1;100.0
45864;BME280;31579;52.354;16.974;2022-12-20T05:39:18;86.1;;;-146.1;100.0
45864;BME280;31579;52.354;16.974;2022-12-20T05:40:21;86.0;;;-146.1;100.0
45864;BME280;31579;52.354;16.974;2022-12-20T05:41:25;88.6;;;-146.1;100.0
45864;BME280;31579;52.354;16.974;2022-12-20T05:42:28;89.1;;;-146.1;100.0
45864;BME280;31579;52.354;16.974;2022-12-20T05:43:31;89.6;;;-146.1;100.0
45864;BME280;31579;52.354;16.974;2022-12-20T05:44:34;90.0;;;-146.1;100.0
45864;BME280;31579;52.354;16.974;2022-12-20T05:45:37;90.7;;;-146.1;100.0
45864;BME280;31579;52.354;16.974;2022-12-20T05:46:40;92.0;;;-146.1;100.0
45864;BME280;31579;52.354;16.974;2022-12-20T05:47:43;92.6;;;-146.1;100.0
45864;BME280;31579;52.354;16.974;2022-12-20T05:48:46;90.0;;;-146.1;100.0
45864;BME280;31579;52.354;16.974;2022-12-20T05:49:49;90.0;;;-146.1;100.0
45864;BME280;31579;52.354;16.974;2022-12-20T05:50:52;90.2;;;-146.1;100.0
45864;BME280;31579;52.354;16.974;2022-12-20T05:51:55;90.1;;;-146.1;100.0
45864;BME280;31579;52.354;16.974;2022-12-20T05:52:58;90.4;;;-146.1;100.0
45864;BME280;31579;52.354;16.974;2022-12-20T05:54:00;129.1;;;-146.1;100.0
45864;BME280;31579;52.354;16.974;2022-12-20T05:55:04;111.9;;;-146.1;100.0
45864;BME280;31579;52.354;16.974;2022-12-20T05:56:07;108.7;;;-146.1;100.0
45864;BME280;31579;52.354;16.974;2022-12-20T05:57:11;99.4;;;-146.1;100.0
45864;BME280;31579;52.354;16.974;2022-12-20T05:58:14;101.6;;;-146.1;100.0
45864;BME280;31579;52.354;16.974;2022-12-20T05:59:17;99.7;;;-146.1;100.0
45864;BME280;31579;52.354;16.974;2022-12-20T06:00:20;98.5;;;-146.1;100.0